EST,Max TemperatureF,Mean TemperatureF,Min TemperatureF,Max Dew PointF,MeanDew PointF,Min DewpointF,Max Humidity, Mean Humidity, Min Humidity, Max Sea Level PressureIn, Mean Sea Level PressureIn, Min Sea Level PressureIn, Max VisibilityMiles, Mean VisibilityMiles, Min VisibilityMiles, Max Wind SpeedMPH, Mean Wind SpeedMPH, Max Gust SpeedMPH,PrecipitationIn, CloudCover, Events, WindDirDegrees
2013-1-1,34,21,8,25,12,-2,64,55,45,29.96,29.80,29.68,10,9,2,20,7,30,T,4,Snow,299
2013-1-2,22,10,-3,11,1,-11,86,69,51,30.21,30.00,29.90,10,9,2,16,4,23,T,4,Snow,305
2013-1-3,14,2,-11,-1,-8,-16,83,65,46,30.22,30.12,29.99,10,10,7,8,2,12,0.00,3,,132
2013-1-4,34,18,3,20,12,-1,80,65,52,29.97,29.87,29.80,10,8,3,17,3,24,0.00,7,Snow,255
2013-1-5,34,24,14,21,15,10,80,61,41,30.25,30.11,29.83,10,10,6,20,6,30,T,2,Snow,292
2013-1-6,34,25,15,26,18,11,81,72,63,30.20,30.01,29.91,10,9,4,5,0,5,T,7,Snow,357
2013-1-7,33,20,7,26,14,3,92,62,32,30.38,30.25,29.97,10,9,5,13,3,17,0.00,3,,282
2013-1-8,60,31,1,19,5,-4,88,54,19,30.35,30.31,30.25,10,9,4,5,1,,0.00,0,,180
2013-1-9,44,34,24,26,22,20,88,67,45,30.37,30.17,29.94,10,8,5,9,1,31,0.00,2,,270
2013-1-10,42,34,25,28,20,18,75,57,39,30.58,30.38,30.04,10,10,7,26,8,43,T,2,Rain,302
2013-1-11,35,27,19,31,23,16,96,74,52,30.55,30.37,30.19,10,9,3,12,2,17,0.09,5,Rain,164
2013-1-12,39,36,32,37,33,30,100,95,89,30.22,30.15,30.11,10,3,0,5,0,6,0.00,8,Fog,117
2013-1-13,42,38,33,40,34,32,100,96,92,30.15,30.07,29.97,10,2,0,6,0,9,0.00,8,Fog,325
2013-1-14,51,42,33,40,31,19,100,69,38,30.28,30.03,29.89,10,5,0,8,4,12,0.01,5,Fog-Rain,310
2013-1-15,35,30,24,22,19,17,88,68,47,30.35,30.29,30.25,10,10,9,8,2,12,0.00,4,,307
2013-1-16,29,27,25,27,26,22,92,84,75,30.23,29.96,29.79,9,2,0,5,0,5,0.24,8,Fog-Snow,-1
2013-1-17,36,27,17,27,17,-5,96,68,39,30.14,29.96,29.80,10,7,0,18,4,26,0.21,5,Fog-Snow,299
2013-1-18,20,13,6,4,-4,-8,76,54,31,30.40,30.31,30.13,10,10,10,7,4,8,0.00,1,,307
2013-1-19,42,26,10,24,16,5,80,58,36,30.30,30.06,29.82,10,9,2,9,1,15,T,6,Snow,185
2013-1-20,43,32,20,30,16,0,88,61,33,29.96,29.71,29.53,10,10,9,26,9,45,0.01,4,Rain,271
2013-1-21,24,17,9,16,7,-6,84,61,37,30.06,29.93,29.77,10,7,2,17,3,31,0.01,6,Snow,243
2013-1-22,19,12,4,16,4,-10,92,68,43,30.07,29.89,29.74,10,7,1,21,5,28,0.01,6,Snow,290
2013-1-23,8,3,-3,-9,-17,-19,62,47,31,30.17,30.13,30.06,10,10,9,21,7,30,0.00,0,,298
2013-1-24,13,1,-11,-12,-14,-17,72,51,30,30.30,30.19,30.14,10,10,10,18,8,32,0.00,0,,302
2013-1-25,15,8,1,4,-10,-13,57,42,27,30.36,30.25,30.09,10,10,4,13,5,18,T,2,Snow,309
2013-1-26,17,9,1,4,-3,-10,87,60,33,30.28,30.14,30.04,10,10,4,16,5,22,T,2,Snow,307
2013-1-27,22,13,4,-1,-2,-5,69,50,31,30.49,30.42,30.29,10,10,10,16,5,23,0.00,1,,268
2013-1-28,19,13,6,16,10,-2,84,71,58,30.48,30.18,30.01,10,3,0,5,0,6,0.34,7,Fog-Snow,-1
2013-1-29,32,26,19,30,22,16,92,82,72,30.20,30.12,30.03,10,7,2,6,0,9,0.03,8,Rain-Snow,0
2013-1-30,44,38,32,43,35,30,100,95,89,30.09,29.67,29.36,10,3,0,10,2,16,0.06,8,Fog-Rain,164
2013-1-31,53,40,26,52,33,5,100,69,38,29.55,29.13,28.86,10,4,0,31,13,46,0.53,7,Fog-Rain,258